»·PEaware :: ASA715 KSLC-KPDX

ASA715 :: KSLC-KPDX

FLIGHT INFORMATION

Flight Status: Arrived
Operator:
Alaska Airlines
More flights by this operator :: More flights under this callsign
Pilot: Andre N. (13929)
Aircraft: AIRBUS A320
(A320)
More flights by this aircraft type
Origin: KSLC Salt Lake City Intl
United States
Destination: KPDX Portland Intl
United States
More flights between these airports :: More routes between these airports
Route: TWF4 TWF J15 BOI J163 BKE JOTBA HHOOD4
File this flight plan on PilotEdge
Remarks:
Altitude:
(Current/Filed)
36,000ft
Speed:
(Current/Filed)
450kts
Departed: 23-Mar-18 01:28 PM
Arrived: 23-Mar-18 03:16 PM
Distance/Time
Traveled:
546nm/1:48
Distance/Time
To Go:
Arrived

Flight Plot

Page will automatically refresh every two minutes.

Flight plan parsing failed; only flown route is shown


Map Options




Map Legend


Flown Route
Filed Route
Departure Airport
Arrival Airport
Navaid (VOR, NDB)
Fix

Horizontal Profiles

Position Reports

Time Latitude Longitude Heading Altitude Ground
Speed
23-Mar-18 13:01 40.785565 -111.978041 0 4236ft 0kts
23-Mar-18 13:02 40.785565 -111.978041 227 4236ft 0kts
23-Mar-18 13:03 40.785565 -111.978041 227 4236ft 0kts
23-Mar-18 13:04 40.785565 -111.978041 227 4236ft 0kts
23-Mar-18 13:05 40.785565 -111.978041 227 4236ft 0kts
23-Mar-18 13:06 40.785565 -111.978041 227 4236ft 0kts
23-Mar-18 13:07 40.785565 -111.978041 227 4236ft 0kts
23-Mar-18 13:08 40.785565 -111.978041 227 4236ft 0kts
23-Mar-18 13:09 40.785565 -111.978041 227 4236ft 0kts
23-Mar-18 13:10 40.785565 -111.978041 227 4236ft 0kts
23-Mar-18 13:11 40.785565 -111.978041 227 4236ft 0kts
23-Mar-18 13:12 40.785565 -111.978041 227 4236ft 0kts
23-Mar-18 13:13 40.785565 -111.978041 227 4236ft 0kts
23-Mar-18 13:14 40.785565 -111.978041 227 4236ft 0kts
23-Mar-18 13:15 40.785565 -111.978041 227 4236ft 0kts
23-Mar-18 13:16 40.785627 -111.977951 227 4236ft 2kts
23-Mar-18 13:17 40.785958 -111.977625 200 4236ft 2kts
23-Mar-18 13:18 40.786297 -111.977560 176 4236ft 0kts
23-Mar-18 13:19 40.786297 -111.977560 176 4236ft 0kts
23-Mar-18 13:20 40.786297 -111.977560 176 4236ft 0kts
23-Mar-18 13:21 40.786032 -111.977025 56 4236ft 10kts
23-Mar-18 13:22 40.791007 -111.977209 355 4236ft 19kts
23-Mar-18 13:23 40.795948 -111.977780 354 4236ft 21kts
23-Mar-18 13:24 40.801952 -111.978477 354 4236ft 21kts
23-Mar-18 13:25 40.807250 -111.978783 45 4236ft 7kts
23-Mar-18 13:26 40.807292 -111.978718 50 4236ft 0kts
23-Mar-18 13:27 40.802108 -111.976314 175 4236ft 95kts
23-Mar-18 13:28 40.759025 -111.982910 238 6213ft 182kts
23-Mar-18 13:29 40.748618 -112.060740 283 8307ft 253kts
23-Mar-18 13:30 40.778495 -112.151789 295 10371ft 267kts
23-Mar-18 13:31 40.809526 -112.244065 297 13742ft 277kts
23-Mar-18 13:32 40.842933 -112.330500 320 17040ft 271kts
23-Mar-18 13:33 40.916114 -112.365836 338 18811ft 313kts
23-Mar-18 13:34 40.996152 -112.398653 336 20713ft 335kts
23-Mar-18 13:35 41.079535 -112.435028 327 22485ft 349kts
23-Mar-18 13:36 41.154157 -112.496682 321 24325ft 355kts
23-Mar-18 13:37 41.233711 -112.574854 316 26227ft 360kts
23-Mar-18 13:38 41.303546 -112.657128 305 27581ft 367kts
23-Mar-18 13:39 41.370281 -112.754697 306 28176ft 399kts
23-Mar-18 13:40 41.445088 -112.866609 304 29119ft 415kts
23-Mar-18 13:41 41.516670 -112.976280 304 30261ft 421kts
23-Mar-18 13:42 41.587478 -113.084969 304 31289ft 425kts
23-Mar-18 13:43 41.660849 -113.197954 303 32581ft 420kts
23-Mar-18 13:44 41.738076 -113.317380 302 33975ft 411kts
23-Mar-18 13:45 41.813719 -113.434823 302 35028ft 408kts
23-Mar-18 13:46 41.888549 -113.551432 302 35900ft 408kts
23-Mar-18 13:47 41.963099 -113.668074 301 36100ft 406kts
23-Mar-18 13:48 42.034492 -113.780210 301 36099ft 406kts
23-Mar-18 13:49 42.102850 -113.887970 301 36098ft 406kts
23-Mar-18 13:50 42.173932 -114.000442 301 36092ft 406kts
23-Mar-18 13:51 42.244059 -114.111824 301 36087ft 405kts
23-Mar-18 13:52 42.317190 -114.228433 301 36053ft 408kts
23-Mar-18 13:53 42.391725 -114.347729 301 36081ft 413kts
23-Mar-18 13:54 42.464051 -114.463963 301 36128ft 415kts
23-Mar-18 13:55 42.536624 -114.577227 302 36135ft 417kts
23-Mar-18 13:56 42.607656 -114.687117 302 36114ft 418kts
23-Mar-18 13:57 42.686875 -114.810294 302 36121ft 419kts
23-Mar-18 13:58 42.759028 -114.922955 302 36114ft 419kts
23-Mar-18 13:59 42.831391 -115.036388 302 36092ft 419kts
23-Mar-18 14:00 42.904060 -115.150744 302 36086ft 418kts
23-Mar-18 14:01 42.977908 -115.267419 302 36057ft 418kts
23-Mar-18 14:02 43.048932 -115.380076 302 36062ft 418kts
23-Mar-18 14:03 43.118808 -115.491336 302 36062ft 418kts
23-Mar-18 14:04 43.189833 -115.604871 302 36043ft 419kts
23-Mar-18 14:05 43.258467 -115.714999 301 36065ft 420kts
23-Mar-18 14:06 43.333538 -115.835937 301 36090ft 421kts
23-Mar-18 14:07 43.407169 -115.955050 301 36081ft 422kts
23-Mar-18 14:08 43.479973 -116.073305 301 36078ft 422kts
23-Mar-18 14:09 43.556352 -116.195348 306 36076ft 428kts
23-Mar-18 14:10 43.641702 -116.300436 309 36064ft 432kts
23-Mar-18 14:11 43.724200 -116.401498 309 36063ft 433kts
23-Mar-18 14:12 43.805107 -116.500940 309 36068ft 433kts
23-Mar-18 14:13 43.891864 -116.607982 309 36072ft 433kts
23-Mar-18 14:14 43.982169 -116.719865 309 36103ft 434kts
23-Mar-18 14:15 44.071673 -116.831223 309 36109ft 434kts
23-Mar-18 14:16 44.157765 -116.938782 309 36100ft 433kts
23-Mar-18 14:17 44.240429 -117.042481 309 36086ft 432kts
23-Mar-18 14:18 44.324071 -117.147828 308 36050ft 435kts
23-Mar-18 14:19 44.412840 -117.260078 308 36078ft 438kts
23-Mar-18 14:20 44.501309 -117.372431 308 36031ft 439kts
23-Mar-18 14:21 44.588405 -117.483518 308 36040ft 440kts
23-Mar-18 14:22 44.677640 -117.597831 309 36014ft 441kts
23-Mar-18 14:23 44.770315 -117.717060 309 35972ft 450kts
23-Mar-18 14:24 44.844566 -117.853966 281 36061ft 428kts
23-Mar-18 14:25 44.868222 -118.017065 273 36045ft 415kts
23-Mar-18 14:26 44.888749 -118.175068 273 36017ft 397kts
23-Mar-18 14:27 44.908536 -118.328635 273 36016ft 400kts
23-Mar-18 14:28 44.928905 -118.488641 273 36013ft 400kts
23-Mar-18 14:29 44.948155 -118.641644 273 36010ft 399kts
23-Mar-18 14:30 44.967139 -118.794252 272 36018ft 400kts
23-Mar-18 14:31 44.986523 -118.951916 273 35967ft 408kts
23-Mar-18 14:32 45.006291 -119.114566 273 36012ft 414kts
23-Mar-18 14:33 45.026398 -119.282164 272 36017ft 396kts
23-Mar-18 14:34 45.045180 -119.440913 272 36016ft 397kts
23-Mar-18 14:35 45.063614 -119.598368 272 36014ft 398kts
23-Mar-18 14:36 45.080472 -119.744227 272 36045ft 398kts
23-Mar-18 14:37 45.097028 -119.889112 272 36046ft 398kts
23-Mar-18 14:38 45.112482 -120.025877 272 35889ft 395kts
23-Mar-18 14:39 45.129171 -120.175325 271 34168ft 390kts
23-Mar-18 14:40 45.146218 -120.329876 270 32403ft 385kts
23-Mar-18 14:41 45.161747 -120.472637 271 30632ft 346kts
23-Mar-18 14:42 45.194030 -120.607124 283 28706ft 344kts
23-Mar-18 14:43 45.230439 -120.725349 283 27009ft 342kts
23-Mar-18 14:44 45.262398 -120.829349 283 25592ft 341kts
23-Mar-18 14:45 45.299027 -120.948996 284 24009ft 337kts
23-Mar-18 14:46 45.336137 -121.070768 282 22065ft 334kts
23-Mar-18 14:47 45.373175 -121.192864 283 19987ft 333kts
23-Mar-18 14:48 45.387641 -121.315295 286 17926ft 331kts
23-Mar-18 14:49 45.430427 -121.435186 289 15894ft 327kts
23-Mar-18 14:50 45.468122 -121.541335 289 13988ft 291kts
23-Mar-18 14:51 45.503708 -121.641877 289 12074ft 291kts
23-Mar-18 14:52 45.529984 -121.726499 268 10863ft 272kts
23-Mar-18 14:53 45.533429 -121.823070 268 10039ft 270kts
23-Mar-18 14:54 45.537036 -121.924711 271 10039ft 288kts
23-Mar-18 14:55 45.552091 -122.023836 285 9434ft 287kts
23-Mar-18 14:56 45.571729 -122.117873 285 9041ft 289kts
23-Mar-18 14:57 45.590948 -122.210341 282 9041ft 286kts
23-Mar-18 14:58 45.610813 -122.306222 280 8955ft 261kts
23-Mar-18 14:59 45.628907 -122.394316 281 7995ft 251kts
23-Mar-18 15:00 45.649016 -122.479988 296 7484ft 245kts
23-Mar-18 15:01 45.674918 -122.551887 295 6751ft 237kts
23-Mar-18 15:02 45.699131 -122.620738 295 5927ft 216kts
23-Mar-18 15:03 45.721521 -122.684235 295 5006ft 211kts
23-Mar-18 15:04 45.744166 -122.748217 295 4995ft 210kts
23-Mar-18 15:05 45.765750 -122.809187 295 5001ft 198kts
23-Mar-18 15:06 45.786803 -122.869420 294 4998ft 194kts
23-Mar-18 15:07 45.766856 -122.911899 166 4301ft 184kts
23-Mar-18 15:08 45.729882 -122.878814 146 3983ft 183kts
23-Mar-18 15:09 45.694209 -122.842240 134 3020ft 182kts
23-Mar-18 15:10 45.669556 -122.786744 120 3001ft 182kts
23-Mar-18 15:11 45.646725 -122.728468 120 2055ft 163kts
23-Mar-18 15:12 45.628867 -122.682816 120 1398ft 128kts
23-Mar-18 15:13 45.611473 -122.639914 118 768ft 129kts
23-Mar-18 15:14 45.595768 -122.598103 122 101ft 124kts
23-Mar-18 15:15 45.588734 -122.582126 206 32ft 0kts
23-Mar-18 15:16 45.588550 -122.582361 242 32ft 3kts
23-Mar-18 15:17 45.590787 -122.588566 299 32ft 27kts
23-Mar-18 15:18 45.592835 -122.597808 219 32ft 21kts
23-Mar-18 15:19 45.589185 -122.600819 119 32ft 16kts
23-Mar-18 15:20 45.588151 -122.596555 28 32ft 10kts
23-Mar-18 15:21 45.588477 -122.596345 23 32ft 0kts
23-Mar-18 15:22 45.588477 -122.596345 23 32ft 0kts
23-Mar-18 15:23 45.588477 -122.596345 23 32ft 0kts

Navigation Log

Ident Type
Flight plan parsing failed, navigation log unavailable